Airfield :
LOGIN :

Register | Disclaimer

   EN    FR    IT 

 










Legend :    VFR   Marginal VFR   IFR   Intensive IFR   Very Intensive IFR
Visi :
Ceiling :
>= 8 km
>= 3000ft
5 to 8 km
1000 to 3000 ft
1500m to 5 km
500 to 1000 ft
800 to 1500m
200 to 500 ft
< 800m
< 200 ft
Symbols :   Thunderstorms  Fog  Heavy snow  Heavy precipitations  Wind > 20 kt
SIGMETs :     Misc.  Thunderstorms  Icing  Turbulence  Mountain Waves  Volcanic Ashes







- Airport Elevation : 80 ft
- IATA code : LPL
- Download approach charts


EGGP - Liverpool John Lennon

CURRENT METAR :
  • 212250Z 13003KT CAVOK 09/08 Q1018

EXPIRED METARs :
  • 212220Z 20004KT CAVOK 09/07 Q1018
  • 212150Z 16004KT 120V210 CAVOK 09/08 Q1017
  • 212120Z 21004KT CAVOK 10/08 Q1017
  • 212050Z 22007KT CAVOK 10/09 Q1017
  • 212020Z 25005KT CAVOK 10/09 Q1017
  • 211950Z 27003KT CAVOK 10/08 Q1016

TAF TAF EGGP
Valid from the 21 at 18:00 until the 22 at 18:00 UTC


211700Z 2118/2218 26012KT 9999 SCT020
BECMG 2118/2121 VRB04KT
BECMG 2206/2209 17012KT
TEMPO 2212/2218 6000 RA
ATIS : +44 151 907 2000 (option 5 or ext 5150)
Met : +44 871 750 5150
No reported NOTAMs for that airfield.



MET'MAP, your aeronautical weather chart ! - Copyright ORBIFLY December 2007 - Disclaimer

ORBIFLY MET'MAP TEAM :

Programming & Development : Alexandra Zaïnal
Concept & Development : Baudouin d'Aumeries
Co-Development & Prog : Marc-Olivier Méhu
Technical & hardware support : Manuel Goepfert

Contact : metmap@orbifly.com




SOURCES & CREDITS :

   NOAA